Pequizeiro, Brazil
Current Conditions -  °F | °C
As of 3:00 PM on Saturday 25 Oct 2014 (Local Time) from SBPJ Reporting Station
Few Clouds Few Clouds  
Wind Chill: 93°   Ceiling: Unl
Heat Index: 95°   Visibility: 6mi
Dew Point: 64°   Wind: 8mph
Humidity: 38%   Direction: 250°WSW
Pressure: 29.74"   Gusts: NA
Location:  8.54°S, 48.97°W
Report Text: SBPJ 251800Z 25007KT 9999 FEW025 FEW030TCU 34/18 Q1007
Loading
Personal Weather Stations






























Interactive Weather Map
Tropical Storm Tracking
New forecast layout! Learn more

10-Day Weather Forecast

Advertisements
Track Severe Weather on mobile